This is the latest recevied weather packets stored in our database for station/object SR9SMR. If no packets are shown the sender has not sent any weather packets the latest 10 day(s).
| Time | Temp. | Humidity | Pressure | Rain* | Wind** | Luminosity | Snow |
|---|---|---|---|---|---|---|---|
| 1777728496 | 16.67° C | 100% | 907.4 hPa | - | - | - | - |
| 1777728167 | 16.11° C | 100% | 907.5 hPa | - | - | - | - |
| 1777727902 | 16.11° C | 100% | 907.1 hPa | - | - | - | - |
| 1777727693 | 16.11° C | 100% | 907.1 hPa | - | - | - | - |
| 1777727387 | 16.11° C | 100% | 907.3 hPa | - | - | - | - |
| 1777727127 | 16.67° C | 100% | 907.6 hPa | - | - | - | - |
| 1777726821 | 16.67° C | 100% | 907.6 hPa | - | - | - | - |
| 1777726624 | 16.11° C | 100% | 907.7 hPa | - | - | - | - |
| 1777726314 | 16.11° C | 100% | 907.4 hPa | - | - | - | - |
| 1777726003 | 16.67° C | 100% | 907.6 hPa | - | - | - | - |
| 1777725904 | 15.56° C | 100% | 907.3 hPa | - | - | - | - |
| 1777725601 | 15.56° C | 100% | 907 hPa | - | - | - | - |
| 1777725256 | 16.11° C | 100% | 907.1 hPa | - | - | - | - |
| 1777725163 | 16.67° C | 100% | 907.8 hPa | - | - | - | - |
| 1777724860 | 17.22° C | 100% | 908 hPa | - | - | - | - |
| 1777724556 | 16.11° C | 100% | 908 hPa | - | - | - | - |
| 1777724248 | 16.11° C | 100% | 907.9 hPa | - | - | - | - |
| 1777724152 | 15.56° C | 100% | 907.4 hPa | - | - | - | - |
| 1777723847 | 16.67° C | 100% | 908.3 hPa | - | - | - | - |
| 1777723514 | 16.11° C | 100% | 908.2 hPa | - | - | - | - |
| 1777723187 | 15.56° C | 100% | 908.6 hPa | - | - | - | - |
| 1777722950 | 15° C | 100% | 907.5 hPa | - | - | - | - |
| 1777722790 | 15.56° C | 100% | 907.9 hPa | - | - | - | - |
| 1777722486 | 15° C | 100% | 908.1 hPa | - | - | - | - |
| 1777722350 | 16.11° C | 100% | 908.6 hPa | - | - | - | - |
* Rain since midnight (hover to see other rain measurements)
** Current wind speed in m/s (hover to see current wind gust speed)